Time;durP1;ratioP1;P1;durP2;ratioP2;P2;SDS_P1;SDS_P2;PMS_P1;PMS_P2;Temp;Humidity;BMP_temperature;BMP_pressure;BME280_temperature;BME280_humidity;BME280_pressure;Samples;Min_cycle;Max_cycle;Signal;HPM_P1;HPM_P2
2021/06/11 00:02:28;;;;;;;6.73;5.53;;;22.60;58.40;;;;;;5119075;28;20575;-79
2021/06/11 00:04:54;;;;;;;6.00;5.40;;;22.60;58.50;;;;;;5118350;28;20474;-79
2021/06/11 00:07:20;;;;;;;6.73;5.80;;;22.60;58.70;;;;;;5118651;28;20486;-80
2021/06/11 00:09:47;;;;;;;6.23;5.63;;;22.60;58.80;;;;;;5120355;28;20959;-80
2021/06/11 00:12:14;;;;;;;5.63;5.13;;;22.50;59.00;;;;;;5119119;28;20529;-79
2021/06/11 00:14:41;;;;;;;6.10;5.60;;;22.50;59.00;;;;;;5118169;28;20465;-79
2021/06/11 00:17:07;;;;;;;5.63;5.13;;;22.50;59.30;;;;;;5118716;28;20438;-79
2021/06/11 00:19:35;;;;;;;5.53;4.93;;;22.40;59.40;;;;;;5118606;28;21006;-79
2021/06/11 00:22:02;;;;;;;6.90;4.77;;;22.40;59.50;;;;;;5117833;28;20835;-79
2021/06/11 00:24:28;;;;;;;5.90;5.37;;;22.40;59.60;;;;;;5118663;28;21001;-79
2021/06/11 00:26:54;;;;;;;5.00;4.60;;;22.40;59.70;;;;;;5119927;28;20482;-79
2021/06/11 00:29:21;;;;;;;6.43;5.80;;;22.40;59.80;;;;;;5120087;28;20451;-79
2021/06/11 00:31:47;;;;;;;5.93;5.43;;;22.40;59.90;;;;;;5120173;28;20443;-79
2021/06/11 00:34:13;;;;;;;5.70;5.30;;;22.30;60.10;;;;;;5119380;28;20466;-79
2021/06/11 00:36:41;;;;;;;5.60;5.10;;;22.20;60.10;;;;;;5119161;28;20435;-78
2021/06/11 00:39:07;;;;;;;5.10;4.70;;;22.20;60.30;;;;;;5119353;28;20415;-79
2021/06/11 00:41:34;;;;;;;5.00;4.70;;;22.20;60.60;;;;;;5119340;28;20450;-79
2021/06/11 00:44:00;;;;;;;6.00;5.40;;;22.20;60.80;;;;;;5118819;28;20459;-79
2021/06/11 00:46:27;;;;;;;5.70;5.20;;;22.10;60.80;;;;;;5118477;28;20454;-79
2021/06/11 00:48:53;;;;;;;6.37;5.07;;;22.10;61.00;;;;;;5118515;28;20435;-78
2021/06/11 00:51:21;;;;;;;6.07;5.47;;;22.10;61.20;;;;;;5118061;28;20495;-79
2021/06/11 00:53:50;;;;;;;7.70;5.67;;;22.00;61.20;;;;;;5117041;28;20482;-79
2021/06/11 00:56:16;;;;;;;5.70;5.07;;;21.90;61.30;;;;;;5117643;28;20459;-79
2021/06/11 00:58:43;;;;;;;6.47;5.87;;;21.90;61.70;;;;;;5117263;28;20817;-78
2021/06/11 01:01:09;;;;;;;5.73;5.23;;;21.80;61.60;;;;;;5118097;28;20443;-79
2021/06/11 01:03:36;;;;;;;6.20;5.37;;;21.80;61.60;;;;;;5117623;28;20477;-79
2021/06/11 01:06:03;;;;;;;5.60;4.90;;;21.80;61.90;;;;;;5117798;28;20447;-79
2021/06/11 01:08:30;;;;;;;6.17;5.30;;;21.70;61.90;;;;;;5118043;28;20479;-79
2021/06/11 01:10:59;;;;;;;5.73;5.07;;;21.70;62.00;;;;;;5118870;28;20817;-79
2021/06/11 01:13:26;;;;;;;6.30;5.73;;;21.70;62.20;;;;;;5121570;28;21047;-79
2021/06/11 01:15:53;;;;;;;7.13;5.53;;;21.60;62.50;;;;;;5121704;28;20454;-79
2021/06/11 01:18:21;;;;;;;6.43;5.83;;;21.50;62.60;;;;;;5121548;28;20997;-78
2021/06/11 01:20:47;;;;;;;6.07;5.33;;;21.50;63.00;;;;;;5121955;28;20493;-79
2021/06/11 01:23:56;;;;;;;8.13;6.00;;;21.40;63.10;;;;;;5121313;28;20473;-79
2021/06/11 01:26:26;;;;;;;6.27;5.77;;;21.40;63.20;;;;;;5120237;28;20438;-77
2021/06/11 01:28:56;;;;;;;5.40;4.90;;;21.30;63.20;;;;;;5120854;28;20426;-78
2021/06/11 01:31:22;;;;;;;6.10;5.57;;;21.30;63.30;;;;;;5119619;28;20446;-78
2021/06/11 01:33:54;;;;;;;7.43;5.10;;;21.30;63.40;;;;;;5122807;28;20463;-78
2021/06/11 01:36:24;;;;;;;5.33;4.83;;;21.20;63.70;;;;;;5119134;28;20800;-79
2021/06/11 01:38:53;;;;;;;9.80;5.40;;;21.20;63.90;;;;;;5119966;28;20450;-78
2021/06/11 01:41:21;;;;;;;6.83;5.40;;;21.10;64.00;;;;;;5119773;28;20477;-78
2021/06/11 01:43:52;;;;;;;7.03;5.97;;;21.00;64.00;;;;;;5120073;28;20516;-79
2021/06/11 01:46:22;;;;;;;5.63;5.00;;;21.10;64.20;;;;;;5119995;28;20427;-78
2021/06/11 01:48:49;;;;;;;5.80;5.37;;;21.00;64.30;;;;;;5118896;28;20481;-79
2021/06/11 01:51:16;;;;;;;5.63;5.23;;;20.90;64.40;;;;;;5119137;28;20447;-78
2021/06/11 01:53:44;;;;;;;6.40;5.80;;;20.90;64.70;;;;;;5118959;28;20485;-78
2021/06/11 01:56:13;;;;;;;7.73;6.17;;;20.90;65.00;;;;;;5121152;28;20442;-78
2021/06/11 01:58:41;;;;;;;6.23;5.60;;;20.80;65.20;;;;;;5123044;28;20443;-79
2021/06/11 02:01:10;;;;;;;8.80;5.30;;;20.80;65.50;;;;;;5122292;28;20447;-79
2021/06/11 02:03:37;;;;;;;6.33;5.83;;;20.70;65.80;;;;;;5122664;28;20960;-79
2021/06/11 02:06:05;;;;;;;10.83;6.70;;;20.60;66.70;;;;;;5120671;28;20835;-79
2021/06/11 02:08:32;;;;;;;8.50;7.70;;;20.50;67.70;;;;;;5120923;28;20489;-79
2021/06/11 02:10:58;;;;;;;7.20;6.60;;;20.50;68.70;;;;;;5120248;28;20449;-79
2021/06/11 02:13:25;;;;;;;7.50;6.77;;;20.50;68.90;;;;;;5119639;28;20820;-79
2021/06/11 02:15:53;;;;;;;7.17;6.47;;;20.50;69.00;;;;;;5119709;28;20447;-79
2021/06/11 02:18:21;;;;;;;7.10;6.40;;;20.50;68.90;;;;;;5119692;28;20445;-79
2021/06/11 02:20:48;;;;;;;7.13;6.50;;;20.50;69.00;;;;;;5119605;28;20448;-79
2021/06/11 02:23:14;;;;;;;8.77;7.87;;;20.50;68.90;;;;;;5119471;28;20983;-79
2021/06/11 02:25:41;;;;;;;7.87;7.13;;;20.50;69.00;;;;;;5119676;28;20495;-80
2021/06/11 02:28:07;;;;;;;9.37;8.50;;;20.40;69.80;;;;;;5120018;28;20482;-80
2021/06/11 02:30:34;;;;;;;9.10;8.30;;;20.40;70.40;;;;;;5120098;28;20497;-79
2021/06/11 02:33:00;;;;;;;8.50;7.70;;;20.30;70.90;;;;;;5120158;28;20535;-79
2021/06/11 02:35:27;;;;;;;9.40;8.17;;;20.30;71.50;;;;;;5119753;28;20450;-79
2021/06/11 02:37:54;;;;;;;7.37;6.77;;;20.30;72.10;;;;;;5119495;28;20439;-79
2021/06/11 02:40:21;;;;;;;9.87;8.93;;;20.30;72.30;;;;;;5119408;28;20465;-79
2021/06/11 02:42:51;;;;;;;8.23;7.47;;;20.30;72.40;;;;;;5119514;28;20443;-79
2021/06/11 02:45:22;;;;;;;8.33;7.63;;;20.30;72.30;;;;;;5122392;28;20434;-79
2021/06/11 02:47:57;;;;;;;8.00;7.30;;;20.40;72.10;;;;;;5133217;28;20979;-79
2021/06/11 02:50:31;;;;;;;9.27;8.47;;;20.30;72.00;;;;;;5133682;28;20430;-81
2021/06/11 02:53:01;;;;;;;9.23;8.33;;;20.30;71.80;;;;;;5122390;28;20477;-80
2021/06/11 02:55:28;;;;;;;8.10;7.40;;;20.40;71.90;;;;;;5121395;28;20446;-79
2021/06/11 02:58:00;;;;;;;8.87;7.97;;;20.40;72.00;;;;;;5119633;28;20513;-79
2021/06/11 03:00:31;;;;;;;9.10;8.20;;;20.40;71.80;;;;;;5119367;28;20423;-79
2021/06/11 03:03:03;;;;;;;9.37;8.50;;;20.40;71.90;;;;;;5119623;28;20834;-79
2021/06/11 03:05:33;;;;;;;10.27;9.27;;;20.40;71.90;;;;;;5119071;28;20427;-79
2021/06/11 03:08:01;;;;;;;10.13;9.20;;;20.50;72.20;;;;;;5119403;28;20479;-79
2021/06/11 03:10:30;;;;;;;10.27;8.90;;;20.40;72.70;;;;;;5119526;28;20443;-79
2021/06/11 03:12:58;;;;;;;12.13;10.20;;;20.50;73.80;;;;;;5119536;28;20450;-79
2021/06/11 03:15:25;;;;;;;13.13;9.77;;;20.40;73.00;;;;;;5118468;28;20447;-77
2021/06/11 03:17:56;;;;;;;11.00;10.00;;;20.40;73.30;;;;;;5118425;28;20505;-77
2021/06/11 03:20:25;;;;;;;11.50;10.27;;;20.40;73.10;;;;;;5117675;28;20843;-78
2021/06/11 03:22:58;;;;;;;9.97;8.97;;;20.40;72.70;;;;;;5118485;28;20438;-78
2021/06/11 03:25:28;;;;;;;10.77;9.67;;;20.40;73.10;;;;;;5119146;28;20832;-78
2021/06/11 03:28:01;;;;;;;11.10;10.10;;;20.40;73.00;;;;;;5119877;28;20463;-78
2021/06/11 03:30:30;;;;;;;10.93;9.93;;;20.50;73.20;;;;;;5119278;28;20431;-80
2021/06/11 03:33:00;;;;;;;10.20;9.40;;;20.50;72.90;;;;;;5119417;28;20442;-80
2021/06/11 03:35:32;;;;;;;11.37;10.37;;;20.50;72.70;;;;;;5119243;28;20912;-79
2021/06/11 03:38:01;;;;;;;12.90;11.57;;;20.50;72.30;;;;;;5120506;28;20423;-80
2021/06/11 03:40:32;;;;;;;12.43;11.13;;;20.50;72.10;;;;;;5128635;28;20446;-79
2021/06/11 03:43:00;;;;;;;11.87;10.77;;;20.40;72.00;;;;;;5129829;28;20840;-80
2021/06/11 03:45:28;;;;;;;14.17;12.60;;;20.30;73.10;;;;;;5121319;28;20442;-80
2021/06/11 03:47:56;;;;;;;13.60;12.30;;;20.30;74.60;;;;;;5120603;28;20535;-80
2021/06/11 03:50:25;;;;;;;13.57;12.37;;;20.20;73.90;;;;;;5120540;28;20451;-79
2021/06/11 03:52:55;;;;;;;13.47;12.27;;;20.20;74.00;;;;;;5120022;28;20481;-80
2021/06/11 03:55:26;;;;;;;14.60;13.20;;;20.20;74.10;;;;;;5120162;28;20416;-79
2021/06/11 03:57:57;;;;;;;14.80;13.40;;;20.30;74.50;;;;;;5119968;28;20419;-80
2021/06/11 04:00:25;;;;;;;13.13;11.93;;;20.30;74.30;;;;;;5119822;28;20431;-80
2021/06/11 04:02:51;;;;;;;12.30;11.23;;;20.30;74.40;;;;;;5119545;28;20457;-79
2021/06/11 04:05:18;;;;;;;14.17;12.97;;;20.40;74.20;;;;;;5118603;28;20453;-79
2021/06/11 04:07:51;;;;;;;15.17;13.60;;;20.40;74.10;;;;;;5118926;28;20479;-80
2021/06/11 04:10:22;;;;;;;14.33;12.93;;;20.40;74.50;;;;;;5118695;28;20772;-79
2021/06/11 04:12:53;;;;;;;13.73;12.30;;;20.40;74.40;;;;;;5118134;28;20480;-80
2021/06/11 04:15:19;;;;;;;14.93;13.40;;;20.40;74.20;;;;;;5118139;28;20901;-79
2021/06/11 04:17:50;;;;;;;15.77;14.37;;;20.40;74.30;;;;;;5117837;28;20439;-79
2021/06/11 04:20:21;;;;;;;15.70;14.30;;;20.50;74.30;;;;;;5117918;28;20502;-80
2021/06/11 04:22:50;;;;;;;14.87;13.57;;;20.50;74.60;;;;;;5117962;28;20434;-80
2021/06/11 04:25:17;;;;;;;19.30;14.60;;;20.50;74.40;;;;;;5117360;28;20995;-79
2021/06/11 04:27:45;;;;;;;15.47;13.93;;;20.50;74.60;;;;;;5117757;28;20494;-80
2021/06/11 04:30:14;;;;;;;16.80;14.73;;;20.50;74.50;;;;;;5118129;28;20443;-80
2021/06/11 04:32:41;;;;;;;16.70;14.97;;;20.50;74.70;;;;;;5118377;28;20450;-80
2021/06/11 04:35:09;;;;;;;18.10;15.90;;;20.60;74.80;;;;;;5119467;28;20454;-79
2021/06/11 04:37:36;;;;;;;17.43;15.47;;;20.60;75.10;;;;;;5119326;28;20439;-80
2021/06/11 04:40:06;;;;;;;18.80;16.93;;;20.60;75.70;;;;;;5118676;28;20454;-80
2021/06/11 04:42:33;;;;;;;22.70;14.57;;;20.50;76.10;;;;;;5118102;28;20447;-80
2021/06/11 04:44:59;;;;;;;18.33;15.97;;;20.50;76.10;;;;;;5117030;28;20495;-80
2021/06/11 04:47:27;;;;;;;17.90;16.10;;;20.50;77.30;;;;;;5118219;28;20497;-79
2021/06/11 04:49:54;;;;;;;19.03;17.10;;;20.50;76.70;;;;;;5118688;28;20550;-80
2021/06/11 04:52:20;;;;;;;19.33;17.43;;;20.50;77.30;;;;;;5118473;28;20470;-80
2021/06/11 04:54:47;;;;;;;18.10;16.40;;;20.50;77.90;;;;;;5118023;28;20553;-80
2021/06/11 04:57:13;;;;;;;20.70;18.80;;;20.40;78.40;;;;;;5118294;28;20431;-79
2021/06/11 04:59:39;;;;;;;18.47;16.80;;;20.50;78.70;;;;;;5118921;28;20453;-80
2021/06/11 05:02:05;;;;;;;18.30;16.60;;;20.60;78.90;;;;;;5118372;28;20447;-80
2021/06/11 05:04:33;;;;;;;20.93;18.83;;;20.60;78.60;;;;;;5118615;28;20516;-80
2021/06/11 05:07:01;;;;;;;21.03;19.03;;;20.70;78.30;;;;;;5117733;28;20438;-78
2021/06/11 05:09:27;;;;;;;21.93;19.07;;;20.70;78.50;;;;;;5117253;28;20481;-79
2021/06/11 05:11:54;;;;;;;16.17;14.67;;;20.80;78.70;;;;;;5117320;28;20458;-79
2021/06/11 05:14:20;;;;;;;30.70;18.37;;;20.80;78.80;;;;;;5117908;28;20493;-79
2021/06/11 05:16:47;;;;;;;20.90;18.17;;;20.80;78.80;;;;;;5117583;28;20462;-79
2021/06/11 05:19:13;;;;;;;27.53;17.87;;;20.80;78.90;;;;;;5117477;28;20522;-79
2021/06/11 05:21:41;;;;;;;19.57;17.53;;;20.90;79.00;;;;;;5117738;28;20812;-79
2021/06/11 05:24:08;;;;;;;23.00;18.10;;;20.90;79.30;;;;;;5117379;28;20463;-79
2021/06/11 05:26:34;;;;;;;21.70;18.63;;;20.90;79.00;;;;;;5117464;28;20423;-78
2021/06/11 05:29:00;;;;;;;21.53;19.43;;;20.90;79.00;;;;;;5116313;28;20925;-79
2021/06/11 05:31:27;;;;;;;21.03;18.93;;;20.90;79.60;;;;;;5117171;28;20453;-79
2021/06/11 05:33:53;;;;;;;20.87;18.80;;;20.90;79.80;;;;;;5116842;28;20918;-80
2021/06/11 05:36:19;;;;;;;20.80;18.80;;;20.90;80.00;;;;;;5117652;28;20439;-80
2021/06/11 05:38:47;;;;;;;21.87;19.57;;;20.90;80.20;;;;;;5116533;28;20443;-78
2021/06/11 05:41:13;;;;;;;23.27;19.10;;;20.80;80.00;;;;;;5114863;28;20458;-77
2021/06/11 05:43:39;;;;;;;25.97;18.73;;;20.70;80.40;;;;;;5115305;28;20470;-79
2021/06/11 05:46:05;;;;;;;21.63;19.33;;;20.70;81.10;;;;;;5115296;28;20434;-78
2021/06/11 05:48:32;;;;;;;23.13;18.67;;;20.70;81.20;;;;;;5115676;28;20458;-79
2021/06/11 05:50:58;;;;;;;28.73;18.20;;;20.80;82.80;;;;;;5115391;28;20819;-78
2021/06/11 05:53:24;;;;;;;27.57;19.30;;;20.90;82.30;;;;;;5115206;28;20486;-78
2021/06/11 05:55:52;;;;;;;20.47;18.30;;;20.90;81.30;;;;;;5114070;28;20455;-77
2021/06/11 05:58:19;;;;;;;21.37;18.83;;;21.00;81.70;;;;;;5118371;28;20453;-77
2021/06/11 06:00:45;;;;;;;22.10;18.93;;;21.10;79.80;;;;;;5117609;28;20449;-78
2021/06/11 06:03:12;;;;;;;21.53;18.67;;;21.20;80.60;;;;;;5117584;28;20465;-78
2021/06/11 06:05:38;;;;;;;22.83;20.50;;;21.30;80.00;;;;;;5117816;28;20447;-77
2021/06/11 06:08:05;;;;;;;21.00;19.00;;;21.30;79.80;;;;;;5117805;28;20470;-77
2021/06/11 06:10:31;;;;;;;21.03;19.00;;;21.40;79.30;;;;;;5117150;28;20941;-77
2021/06/11 06:12:59;;;;;;;23.07;17.03;;;21.40;79.70;;;;;;5117036;28;20811;-78
2021/06/11 06:15:25;;;;;;;20.53;18.50;;;21.50;79.80;;;;;;5117632;28;20852;-78
2021/06/11 06:17:52;;;;;;;6.80;6.30;;;21.60;79.30;;;;;;5117760;28;20439;-76
2021/06/11 06:20:18;;;;;;;9.70;8.80;;;21.80;73.30;;;;;;5121004;28;20460;-76
2021/06/11 06:22:45;;;;;;;11.90;10.80;;;22.00;71.60;;;;;;5117687;28;20446;-76
2021/06/11 06:25:13;;;;;;;14.37;12.80;;;22.30;71.40;;;;;;5116419;28;20991;-76
2021/06/11 06:27:41;;;;;;;12.47;11.27;;;22.60;71.10;;;;;;5116379;28;20543;-76
2021/06/11 06:30:10;;;;;;;13.13;10.63;;;22.80;71.40;;;;;;5116174;28;20901;-76
2021/06/11 06:32:37;;;;;;;14.43;11.00;;;23.00;70.60;;;;;;5116362;28;20446;-76
2021/06/11 06:35:04;;;;;;;14.63;13.20;;;23.20;70.00;;;;;;5117048;28;20465;-77
2021/06/11 06:37:30;;;;;;;16.07;13.60;;;23.40;70.20;;;;;;5117649;28;20431;-78
2021/06/11 06:39:57;;;;;;;15.47;13.67;;;23.60;69.70;;;;;;5117559;28;20454;-78
2021/06/11 06:42:23;;;;;;;14.23;12.23;;;23.70;69.40;;;;;;5118173;28;20507;-76
2021/06/11 06:44:50;;;;;;;15.27;13.80;;;23.80;68.50;;;;;;5116262;28;20999;-76
2021/06/11 06:47:17;;;;;;;16.90;15.37;;;24.00;68.60;;;;;;5116749;28;20447;-76
2021/06/11 06:49:44;;;;;;;13.60;12.20;;;24.10;69.40;;;;;;5117243;28;20442;-76
2021/06/11 06:52:10;;;;;;;11.47;10.47;;;24.10;68.80;;;;;;5116410;28;20434;-79
2021/06/11 06:54:36;;;;;;;15.20;13.70;;;24.20;67.60;;;;;;5116287;28;20508;-76
2021/06/11 06:57:03;;;;;;;11.47;10.43;;;24.20;68.40;;;;;;5116129;28;20472;-76
2021/06/11 06:59:29;;;;;;;14.10;12.80;;;24.30;67.00;;;;;;5116768;28;20495;-77
2021/06/11 07:01:59;;;;;;;15.13;13.67;;;24.40;67.20;;;;;;5116860;28;20992;-77
2021/06/11 07:04:27;;;;;;;15.27;13.70;;;24.50;68.00;;;;;;5117262;28;20467;-77
2021/06/11 07:06:53;;;;;;;11.90;10.70;;;24.60;68.30;;;;;;5117287;28;20447;-77
2021/06/11 07:09:20;;;;;;;12.43;11.23;;;24.70;67.80;;;;;;5116495;28;20477;-77
2021/06/11 07:11:48;;;;;;;13.20;12.00;;;24.70;66.30;;;;;;5116998;28;20455;-77
2021/06/11 07:14:14;;;;;;;12.17;10.90;;;24.80;67.20;;;;;;5117146;28;20467;-77
2021/06/11 07:16:41;;;;;;;10.60;9.67;;;24.90;66.40;;;;;;5117180;28;20451;-77
2021/06/11 07:19:07;;;;;;;16.07;13.63;;;25.00;65.70;;;;;;5117158;28;20465;-78
2021/06/11 07:21:34;;;;;;;11.10;10.10;;;25.20;65.20;;;;;;5116626;28;20442;-76
2021/06/11 07:24:01;;;;;;;15.73;13.07;;;25.30;64.70;;;;;;5115530;28;20478;-78
2021/06/11 07:26:27;;;;;;;10.73;9.73;;;25.50;64.80;;;;;;5115628;28;20431;-77
2021/06/11 07:28:53;;;;;;;12.50;11.20;;;25.60;63.30;;;;;;5115223;28;20470;-77
2021/06/11 07:31:20;;;;;;;11.70;10.60;;;25.70;63.20;;;;;;5115595;28;20458;-77
2021/06/11 07:33:47;;;;;;;12.07;10.87;;;25.80;62.50;;;;;;5116901;28;20512;-77
2021/06/11 07:36:13;;;;;;;12.53;11.33;;;26.00;62.00;;;;;;5116231;28;20961;-76
2021/06/11 07:38:41;;;;;;;11.10;10.10;;;26.00;61.60;;;;;;5116908;28;20476;-77
2021/06/11 07:41:07;;;;;;;11.73;10.67;;;26.00;60.00;;;;;;5117798;28;20446;-78
2021/06/11 07:43:33;;;;;;;10.27;9.37;;;26.10;60.90;;;;;;5116643;28;20987;-76
2021/06/11 07:46:15;;;;;;;10.13;9.23;;;26.20;59.80;;;;;;5120657;28;20439;-74
2021/06/11 07:48:41;;;;;;;9.07;8.27;;;26.30;59.00;;;;;;5117159;28;20463;-72
2021/06/11 07:51:08;;;;;;;6.93;6.23;;;26.40;59.20;;;;;;5114909;28;20427;-73
2021/06/11 07:53:34;;;;;;;11.30;10.30;;;26.60;58.70;;;;;;5114504;28;20494;-72
2021/06/11 07:56:02;;;;;;;12.37;11.30;;;26.80;58.30;;;;;;5114738;28;20443;-74
2021/06/11 07:58:28;;;;;;;10.00;9.10;;;26.80;57.60;;;;;;5114524;28;20912;-72
2021/06/11 08:00:54;;;;;;;9.20;8.40;;;26.90;56.60;;;;;;5114822;28;20476;-73
2021/06/11 08:03:21;;;;;;;12.60;11.30;;;26.90;57.60;;;;;;5114837;28;20474;-73
2021/06/11 08:05:47;;;;;;;10.70;9.70;;;26.80;57.40;;;;;;5114642;28;20465;-73
2021/06/11 08:08:13;;;;;;;10.90;9.97;;;26.90;57.00;;;;;;5114587;28;20508;-73
2021/06/11 08:10:39;;;;;;;10.90;9.93;;;26.90;57.30;;;;;;5114570;28;20446;-72
2021/06/11 08:13:07;;;;;;;11.57;10.47;;;27.00;56.60;;;;;;5114472;28;20463;-72
2021/06/11 08:15:34;;;;;;;8.70;7.20;;;27.10;56.60;;;;;;5114318;28;20944;-72
2021/06/11 08:18:00;;;;;;;15.00;11.53;;;27.10;56.30;;;;;;5114333;28;20959;-72
2021/06/11 08:20:27;;;;;;;11.30;10.23;;;27.20;56.00;;;;;;5113825;28;20967;-73
2021/06/11 08:22:54;;;;;;;12.43;9.90;;;27.40;55.90;;;;;;5114385;28;20479;-73
2021/06/11 08:25:22;;;;;;;11.03;10.13;;;27.40;55.50;;;;;;5114171;28;20443;-74
2021/06/11 08:27:48;;;;;;;12.47;9.10;;;27.60;56.00;;;;;;5114149;28;20462;-73
2021/06/11 08:30:17;;;;;;;11.33;10.23;;;27.60;55.70;;;;;;5114102;28;20451;-73
2021/06/11 08:32:43;;;;;;;5.53;5.10;;;27.70;56.00;;;;;;5114056;28;20450;-73
2021/06/11 08:35:10;;;;;;;10.90;9.90;;;27.90;55.30;;;;;;5114118;28;20428;-73
2021/06/11 08:37:36;;;;;;;7.13;6.53;;;28.00;54.70;;;;;;5113724;28;20415;-74
2021/06/11 08:40:03;;;;;;;6.70;6.10;;;28.10;54.50;;;;;;5114047;28;20427;-72
2021/06/11 08:42:30;;;;;;;11.20;10.10;;;28.40;54.80;;;;;;5114013;28;20442;-73
2021/06/11 08:44:58;;;;;;;9.17;8.37;;;28.50;53.10;;;;;;5113959;28;20538;-74
2021/06/11 08:47:29;;;;;;;7.07;6.47;;;28.60;53.20;;;;;;5113813;28;20443;-74
2021/06/11 08:49:55;;;;;;;6.00;5.40;;;28.70;52.90;;;;;;5113670;28;20432;-74
2021/06/11 08:52:22;;;;;;;6.90;6.10;;;28.80;52.90;;;;;;5113747;28;20446;-74
2021/06/11 08:54:50;;;;;;;11.07;10.00;;;29.00;52.80;;;;;;5114604;28;20486;-73
2021/06/11 08:57:19;;;;;;;12.47;11.37;;;29.30;52.20;;;;;;5113872;28;20480;-73
2021/06/11 08:59:46;;;;;;;9.87;8.93;;;29.50;52.10;;;;;;5113445;28;20949;-73
2021/06/11 09:02:12;;;;;;;7.83;6.80;;;29.60;51.60;;;;;;5113523;28;20933;-72
2021/06/11 09:04:42;;;;;;;10.53;9.63;;;29.80;50.60;;;;;;5113473;28;20467;-74
2021/06/11 09:07:24;;;;;;;12.00;10.77;;;29.90;49.60;;;;;;5113842;28;20419;-74
2021/06/11 09:09:53;;;;;;;10.00;9.10;;;30.00;49.80;;;;;;5113434;28;20433;-74
2021/06/11 09:12:43;;;;;;;12.90;11.60;;;30.20;48.90;;;;;;5113736;28;20484;-74
2021/06/11 09:15:12;;;;;;;13.77;12.40;;;30.30;48.40;;;;;;5093136;28;20454;-73
2021/06/11 09:17:41;;;;;;;9.17;8.37;;;30.50;49.30;;;;;;5113392;28;20896;-73
2021/06/11 09:20:14;;;;;;;8.13;5.20;;;30.70;48.00;;;;;;5113313;28;20887;-74
2021/06/11 09:22:46;;;;;;;11.70;9.30;;;30.80;47.50;;;;;;5113334;28;20457;-74
2021/06/11 09:25:41;;;;;;;9.37;8.47;;;31.00;47.20;;;;;;5113638;28;20430;-74
2021/06/11 09:28:08;;;;;;;10.30;9.40;;;31.30;46.90;;;;;;5091281;28;20998;-74
2021/06/11 09:30:51;;;;;;;8.60;7.80;;;31.40;46.30;;;;;;5113551;28;20465;-73
2021/06/11 09:33:19;;;;;;;8.60;7.90;;;31.30;45.50;;;;;;5117199;28;20472;-73
2021/06/11 09:35:48;;;;;;;10.33;9.23;;;31.40;46.40;;;;;;5117486;28;20503;-72
2021/06/11 09:38:18;;;;;;;10.00;7.57;;;31.60;45.20;;;;;;5117465;28;20427;-73
2021/06/11 09:40:48;;;;;;;9.30;7.80;;;31.80;44.50;;;;;;5117368;28;20863;-74
2021/06/11 09:43:15;;;;;;;9.57;8.73;;;31.60;44.30;;;;;;5117245;28;20869;-73
2021/06/11 09:45:42;;;;;;;6.13;5.63;;;31.50;44.30;;;;;;5117283;28;20434;-72
2021/06/11 09:48:25;;;;;;;6.13;5.47;;;31.40;45.10;;;;;;5117089;28;20488;-72
2021/06/11 09:50:52;;;;;;;10.03;8.90;;;31.50;45.70;;;;;;5116824;28;20479;-73
2021/06/11 09:53:22;;;;;;;7.40;6.67;;;31.80;45.00;;;;;;5116810;28;20470;-72
2021/06/11 09:55:51;;;;;;;8.90;8.20;;;32.00;43.90;;;;;;5117071;28;20435;-73
2021/06/11 09:58:18;;;;;;;9.43;8.53;;;32.40;43.20;;;;;;5116962;28;20435;-72
2021/06/11 10:00:49;;;;;;;8.07;7.40;;;32.40;42.40;;;;;;5116873;28;20445;-74
2021/06/11 10:03:17;;;;;;;7.43;6.63;;;32.40;43.20;;;;;;5116882;28;20501;-75
2021/06/11 10:05:45;;;;;;;8.57;7.83;;;32.20;42.70;;;;;;5116834;28;20442;-75
2021/06/11 10:08:13;;;;;;;5.23;4.83;;;32.00;43.20;;;;;;5116750;28;20466;-74
2021/06/11 10:10:41;;;;;;;7.30;6.60;;;32.10;43.30;;;;;;5116790;28;20446;-74
2021/06/11 10:13:10;;;;;;;9.70;8.80;;;32.40;42.30;;;;;;5116660;28;20515;-74
2021/06/11 10:15:37;;;;;;;7.93;7.13;;;32.70;41.50;;;;;;5116686;28;20472;-75
2021/06/11 10:18:03;;;;;;;9.43;8.63;;;32.70;41.40;;;;;;5116721;28;20422;-74
2021/06/11 10:20:30;;;;;;;7.50;6.83;;;32.50;41.50;;;;;;5116262;28;20476;-74
2021/06/11 10:22:56;;;;;;;7.90;7.17;;;32.50;42.20;;;;;;5116516;28;20476;-74
2021/06/11 10:25:25;;;;;;;7.73;6.93;;;32.50;41.40;;;;;;5116334;28;20803;-74
2021/06/11 10:27:51;;;;;;;7.33;6.73;;;32.40;41.70;;;;;;5116412;28;20459;-75
2021/06/11 10:30:18;;;;;;;7.43;6.60;;;32.70;40.90;;;;;;5116150;28;20434;-76
2021/06/11 10:32:47;;;;;;;9.20;8.43;;;33.00;40.80;;;;;;5116391;28;20442;-75
2021/06/11 10:35:34;;;;;;;7.30;6.60;;;33.30;40.20;;;;;;5116091;28;20426;-72
2021/06/11 10:38:00;;;;;;;8.87;8.17;;;33.50;39.40;;;;;;5116007;28;20422;-73
2021/06/11 10:40:34;;;;;;;9.67;8.80;;;34.00;39.40;;;;;;5116232;28;20433;-74
2021/06/11 10:43:24;;;;;;;5.80;5.30;;;34.50;37.90;;;;;;5116128;28;20465;-74
2021/06/11 10:45:51;;;;;;;9.57;6.73;;;35.30;37.00;;;;;;5115876;28;20806;-75
2021/06/11 10:48:18;;;;;;;6.30;5.70;;;36.00;34.50;;;;;;5116033;28;20478;-75
2021/06/11 10:50:44;;;;;;;5.60;5.10;;;36.30;33.40;;;;;;5116023;28;20442;-75
2021/06/11 10:53:13;;;;;;;5.90;5.20;;;35.80;34.00;;;;;;5115693;28;20550;-73
2021/06/11 10:55:49;;;;;;;6.50;5.90;;;35.70;34.90;;;;;;5115934;28;20448;-73
2021/06/11 10:58:33;;;;;;;6.23;5.37;;;36.20;34.20;;;;;;5115988;28;20423;-72
2021/06/11 11:01:20;;;;;;;6.43;5.20;;;36.50;33.10;;;;;;5115575;28;20419;-72
2021/06/11 11:03:46;;;;;;;7.23;6.60;;;36.10;33.40;;;;;;5115703;28;20462;-73
2021/06/11 11:06:35;;;;;;;6.20;5.60;;;35.30;34.70;;;;;;5115768;28;20427;-73
2021/06/11 11:09:05;;;;;;;5.93;5.43;;;34.70;35.90;;;;;;5115666;28;20477;-73
2021/06/11 11:11:42;;;;;;;7.40;6.70;;;34.30;36.60;;;;;;5115746;28;20442;-73
2021/06/11 11:14:39;;;;;;;10.70;7.80;;;34.20;37.20;;;;;;5115538;28;20489;-72
2021/06/11 11:17:06;;;;;;;5.20;4.70;;;34.90;36.40;;;;;;5115546;28;20430;-72
2021/06/11 11:19:47;;;;;;;6.90;6.17;;;35.50;35.30;;;;;;5115458;28;20811;-73
2021/06/11 11:22:30;;;;;;;7.43;6.40;;;35.90;34.10;;;;;;5115179;28;20446;-73
2021/06/11 11:24:57;;;;;;;6.00;5.50;;;35.60;34.60;;;;;;5115301;28;20470;-72
2021/06/11 11:27:25;;;;;;;7.60;5.60;;;35.20;35.10;;;;;;5115350;28;20439;-71
2021/06/11 11:29:52;;;;;;;5.27;4.77;;;35.40;34.10;;;;;;5114870;28;20855;-73
2021/06/11 11:32:19;;;;;;;4.50;4.10;;;35.90;34.00;;;;;;5115208;28;20452;-73
2021/06/11 11:34:45;;;;;;;5.57;5.07;;;36.60;33.50;;;;;;5115111;28;20458;-73
2021/06/11 11:37:12;;;;;;;4.73;3.73;;;37.10;32.00;;;;;;5115114;28;20455;-73
2021/06/11 11:39:39;;;;;;;4.40;4.00;;;37.20;30.80;;;;;;5114781;28;20931;-73
2021/06/11 11:42:06;;;;;;;5.23;4.30;;;37.40;31.00;;;;;;5115034;28;20476;-73
2021/06/11 11:44:34;;;;;;;5.30;4.10;;;37.80;29.90;;;;;;5114921;28;20466;-72
2021/06/11 11:47:01;;;;;;;5.30;4.80;;;38.20;28.40;;;;;;5114915;28;20201;-73
2021/06/11 11:49:28;;;;;;;7.97;4.60;;;38.70;28.20;;;;;;5114818;28;20256;-71
2021/06/11 11:51:54;;;;;;;4.77;4.10;;;39.10;28.60;;;;;;5114929;28;20189;-72
2021/06/11 11:54:20;;;;;;;7.27;4.73;;;38.70;28.30;;;;;;5113911;28;20228;-72
2021/06/11 11:56:47;;;;;;;5.87;4.10;;;38.50;29.00;;;;;;5114880;28;20195;-74
2021/06/11 11:59:13;;;;;;;5.03;4.63;;;38.50;29.40;;;;;;5114751;28;20188;-72
2021/06/11 12:01:42;;;;;;;4.28;3.97;;;39.00;29.10;;;;;;5114760;28;20208;-72
2021/06/11 12:04:08;;;;;;;5.40;4.63;;;39.50;27.60;;;;;;5114624;28;20284;-72
2021/06/11 12:06:35;;;;;;;4.32;3.92;;;39.80;27.20;;;;;;5114380;28;20189;-72
2021/06/11 12:09:01;;;;;;;3.97;3.58;;;40.00;27.00;;;;;;5114557;28;20224;-74
2021/06/11 12:11:27;;;;;;;4.75;3.65;;;40.20;26.80;;;;;;5114375;28;20185;-73
2021/06/11 12:13:53;;;;;;;3.72;3.15;;;40.50;26.70;;;;;;5114396;28;20224;-72
2021/06/11 12:16:20;;;;;;;4.28;3.92;;;41.00;25.90;;;;;;5114437;28;20189;-73
2021/06/11 12:18:47;;;;;;;4.30;3.22;;;41.30;24.90;;;;;;5114113;28;20635;-73
2021/06/11 12:21:14;;;;;;;6.18;4.10;;;41.20;24.90;;;;;;5114078;28;20225;-74
2021/06/11 12:23:41;;;;;;;4.75;3.53;;;40.50;25.20;;;;;;5114436;28;20224;-74
2021/06/11 12:26:07;;;;;;;3.60;3.15;;;40.10;25.80;;;;;;5114013;28;20180;-74
2021/06/11 12:28:33;;;;;;;4.45;4.05;;;39.80;26.40;;;;;;5114262;28;20568;-74
2021/06/11 12:31:01;;;;;;;3.78;3.38;;;39.10;26.70;;;;;;5114232;28;20181;-74
2021/06/11 12:33:27;;;;;;;4.30;3.53;;;38.80;27.80;;;;;;5114119;28;20269;-75
2021/06/11 12:35:55;;;;;;;3.78;3.22;;;38.70;27.40;;;;;;5114022;28;20630;-74
2021/06/11 12:38:22;;;;;;;3.72;3.42;;;39.10;27.10;;;;;;5114226;28;20185;-73
2021/06/11 12:40:51;;;;;;;3.83;3.05;;;39.50;26.50;;;;;;5114257;28;20188;-74
2021/06/11 12:43:20;;;;;;;3.85;3.38;;;40.20;25.70;;;;;;5114096;28;20230;-74
2021/06/11 12:45:46;;;;;;;3.45;2.70;;;40.60;25.50;;;;;;5113974;28;20196;-74